Time;durP1;ratioP1;P1;durP2;ratioP2;P2;SDS_P1;SDS_P2;PMS_P1;PMS_P2;Temp;Humidity;BMP_temperature;BMP_pressure;BME280_temperature;BME280_humidity;BME280_pressure;Samples;Min_cycle;Max_cycle;Signal;HPM_P1;HPM_P2
2023/08/25 00:02:25;;;;;;;;;21.75;18.50;;;;;28.49;43.00;100535.69;146639;570;44021;-66
2023/08/25 00:05:21;;;;;;;;;23.50;23.50;;;;;29.21;42.88;100665.47;146633;598;45915;-66
2023/08/25 00:08:23;;;;;;;;;27.75;25.00;;;;;29.31;42.59;100667.87;146639;600;44021;-65
2023/08/25 00:11:26;;;;;;;;;22.25;22.25;;;;;29.36;43.23;100663.31;146635;566;44916;-64
2023/08/25 00:14:27;;;;;;;;;25.00;21.75;;;;;29.37;43.23;100663.25;146640;570;45010;-65
2023/08/25 00:17:39;;;;;;;;;20.50;19.75;;;;;29.36;42.70;100666.84;146635;707;45915;-64
2023/08/25 00:20:41;;;;;;;;;23.75;22.50;;;;;29.31;43.67;100663.41;146639;684;45014;-68
2023/08/25 00:24:00;;;;;;;;;25.00;21.75;;;;;28.66;43.23;100535.22;146635;618;45915;-66
2023/08/25 00:27:09;;;;;;;;;26.00;23.75;;;;;29.37;42.46;100649.03;146640;572;45012;-67
2023/08/25 00:30:16;;;;;;;;;;;;;;;;;;;;;
2023/08/25 00:33:32;;;;;;;;;25.25;23.00;;;;;29.34;42.35;100641.97;146641;578;45014;-67
2023/08/25 00:36:49;;;;;;;;;23.00;21.75;;;;;28.58;41.95;100538.09;146637;569;44913;-67
2023/08/25 00:39:50;;;;;;;;;24.25;22.25;;;;;29.10;42.32;100645.31;146637;575;46001;-65
2023/08/25 00:42:50;;;;;;;;;20.00;19.00;;;;;29.08;41.79;100640.00;146637;574;44915;-66
2023/08/25 00:45:46;;;;;;;;;23.25;21.75;;;;;29.04;41.55;100648.16;146639;613;45015;-66
2023/08/25 00:48:53;;;;;;;;;23.00;21.25;;;;;28.89;41.46;100647.59;146637;584;44914;-66
2023/08/25 00:51:59;;;;;;;;;;;;;;;;;;;;;
2023/08/25 00:55:23;;;;;;;;;25.50;24.50;;;;;28.72;42.11;100647.13;146637;590;45013;-66
2023/08/25 00:58:30;;;;;;;;;23.25;20.75;;;;;28.02;42.26;100532.37;146620;559;46010;-67
2023/08/25 01:01:27;;;;;;;;;26.50;22.50;;;;;28.60;42.14;100653.66;146612;622;46012;-67
2023/08/25 01:04:37;;;;;;;;;27.00;21.75;;;;;28.61;42.71;100636.75;146616;583;45020;-66
2023/08/25 01:07:30;;;;;;;;;24.00;20.75;;;;;28.61;42.99;100634.06;146614;582;46012;-65
2023/08/25 01:10:54;;;;;;;;;28.25;22.25;;;;;28.56;42.23;100646.63;146613;572;47010;-68
2023/08/25 01:14:34;;;;;;;;;19.75;18.00;;;;;28.51;42.67;100640.56;146613;571;46012;-65
2023/08/25 01:18:09;;;;;;;;;22.00;21.75;;;;;28.46;42.96;100637.97;146616;587;46012;-65
2023/08/25 01:21:14;;;;;;;;;24.00;21.00;;;;;28.43;42.63;100631.84;146614;644;45917;-68
2023/08/25 01:24:33;;;;;;;;;21.75;20.75;;;;;28.37;42.87;100635.50;146618;582;45038;-68
2023/08/25 01:27:43;;;;;;;;;21.00;20.00;;;;;28.24;43.38;100634.03;146614;589;45917;-70
2023/08/25 01:30:40;;;;;;;;;22.75;19.00;;;;;28.21;43.57;100636.78;146618;619;46010;-67
2023/08/25 01:33:45;;;;;;;;;24.25;22.75;;;;;28.23;44.00;100637.63;146613;581;45914;-66
2023/08/25 01:36:59;;;;;;;;;20.00;19.00;;;;;28.22;44.18;100636.72;146618;594;45021;-66
2023/08/25 01:40:07;;;;;;;;;20.50;20.00;;;;;27.17;43.71;100440.16;146611;637;45917;-65
2023/08/25 01:43:07;;;;;;;;;25.25;23.75;;;;;28.54;44.26;100640.47;146609;607;46024;-64
2023/08/25 01:46:34;;;;;;;;;21.50;19.50;;;;;28.72;44.08;100632.03;146611;591;46013;-65
2023/08/25 01:49:38;;;;;;;;;20.50;17.75;;;;;28.90;44.01;100637.78;146617;575;46012;-65
2023/08/25 01:52:38;;;;;;;;;20.75;20.75;;;;;29.02;45.23;100640.16;146614;565;45917;-64
2023/08/25 01:55:36;;;;;;;;;27.50;23.50;;;;;29.11;45.58;100631.91;146617;569;45020;-65
2023/08/25 01:58:34;;;;;;;;;25.75;23.50;;;;;29.18;47.24;100641.50;146635;576;45917;-68
2023/08/25 02:01:35;;;;;;;;;20.50;18.75;;;;;29.11;47.07;100633.72;146632;593;46010;-66
2023/08/25 02:04:38;;;;;;;;;24.00;23.00;;;;;29.05;49.00;100631.22;146632;596;45917;-69
2023/08/25 02:07:36;;;;;;;;;32.75;28.00;;;;;28.96;48.27;100640.28;146640;588;45011;-68
2023/08/25 02:10:30;;;;;;;;;22.75;22.00;;;;;28.90;47.59;100636.00;146636;583;45012;-67
2023/08/25 02:13:30;;;;;;;;;30.50;27.00;;;;;28.95;49.19;100635.88;146638;624;45010;-68
2023/08/25 02:16:23;;;;;;;;;24.75;23.50;;;;;28.91;48.35;100636.84;146634;585;45917;-67
2023/08/25 02:19:39;;;;;;;;;20.00;19.75;;;;;28.85;48.19;100643.25;146639;606;44020;-67
2023/08/25 02:22:43;;;;;;;;;24.50;22.25;;;;;28.81;46.77;100641.56;146636;575;45915;-67
2023/08/25 02:25:34;;;;;;;;;25.50;23.50;;;;;28.85;48.83;100643.25;146639;662;45010;-67
2023/08/25 02:28:31;;;;;;;;;27.50;24.75;;;;;28.88;48.02;100653.84;146636;638;45917;-68
2023/08/25 02:31:35;;;;;;;;;25.50;23.50;;;;;28.92;48.02;100650.19;146636;613;45014;-66
2023/08/25 02:34:39;;;;;;;;;25.25;23.25;;;;;28.94;47.05;100653.69;146636;577;45917;-65
2023/08/25 02:37:46;;;;;;;;;23.25;22.25;;;;;28.99;47.28;100661.56;146638;585;45010;-67
2023/08/25 02:40:44;;;;;;;;;25.75;23.75;;;;;29.05;45.87;100663.25;146634;586;45012;-66
2023/08/25 02:43:43;;;;;;;;;25.00;21.50;;;;;29.05;45.42;100665.91;146639;601;44020;-66
2023/08/25 02:46:47;;;;;;;;;26.00;23.75;;;;;29.07;45.71;100669.44;146635;644;45012;-66
2023/08/25 02:49:57;;;;;;;;;28.00;25.00;;;;;29.16;45.21;100674.50;146638;564;45010;-66
2023/08/25 02:52:59;;;;;;;;;25.50;21.00;;;;;29.28;45.26;100671.50;146637;564;45917;-67
2023/08/25 02:56:28;;;;;;;;;32.00;28.00;;;;;29.36;45.03;100663.31;146638;588;44020;-65
2023/08/25 02:59:27;;;;;;;;;24.25;22.25;;;;;29.43;44.82;100672.88;146635;665;45914;-66
2023/08/25 03:02:31;;;;;;;;;25.00;24.50;;;;;29.38;44.68;100669.50;146640;604;45014;-66
2023/08/25 03:05:36;;;;;;;;;22.75;21.25;;;;;29.34;45.07;100683.81;146636;582;45916;-66
2023/08/25 03:08:38;;;;;;;;;22.00;19.25;;;;;29.36;45.25;100693.56;146637;591;44021;-67
2023/08/25 03:11:39;;;;;;;;;22.50;20.50;;;;;29.42;45.35;100696.06;146636;633;45012;-66
2023/08/25 03:15:01;;;;;;;;;24.00;23.00;;;;;29.52;45.17;100691.34;146640;592;44020;-66
2023/08/25 03:18:03;;;;;;;;;22.25;20.25;;;;;29.58;44.87;100698.31;146631;610;45909;-67
2023/08/25 03:21:16;;;;;;;;;26.50;23.50;;;;;28.96;44.46;100590.47;146634;660;45916;-66
2023/08/25 03:24:20;;;;;;;;;24.50;23.25;;;;;29.62;44.58;100705.34;146635;606;45914;-65
2023/08/25 03:27:38;;;;;;;;;;;;;;;;;;;;;
2023/08/25 03:30:30;;;;;;;;;23.00;23.00;;;;;29.60;44.81;100717.88;146638;608;44915;-65
2023/08/25 03:33:22;;;;;;;;;25.00;23.25;;;;;29.65;44.92;100710.59;146637;600;45014;-65
2023/08/25 03:36:17;;;;;;;;;21.25;19.75;;;;;29.66;43.99;100710.59;146637;625;46017;-65
2023/08/25 03:39:20;;;;;;;;;26.25;23.00;;;;;29.64;43.92;100708.88;146640;717;44020;-65
2023/08/25 03:42:29;;;;;;;;;20.50;20.50;;;;;29.57;43.66;100716.16;146637;677;45012;-65
2023/08/25 03:45:26;;;;;;;;;20.75;19.75;;;;;29.49;44.71;100704.78;146640;601;44021;-65
2023/08/25 03:48:29;;;;;;;;;26.25;23.25;;;;;29.49;44.03;100714.59;146634;627;45916;-65
2023/08/25 03:51:21;;;;;;;;;23.50;20.75;;;;;29.46;44.35;100726.22;146636;603;45010;-65
2023/08/25 03:54:31;;;;;;;;;21.75;20.50;;;;;29.48;44.16;100720.88;146627;566;45915;-65
2023/08/25 03:57:34;;;;;;;;;21.75;21.00;;;;;29.51;43.31;100728.81;146627;581;45020;-63
2023/08/25 04:00:44;;;;;;;;;23.25;22.50;;;;;29.48;44.53;100723.53;146613;569;45917;-70
2023/08/25 04:03:56;;;;;;;;;22.50;22.00;;;;;28.89;43.90;100625.38;146617;575;45020;-66
2023/08/25 04:06:59;;;;;;;;;23.00;20.75;;;;;29.45;43.75;100733.38;146614;628;45915;-66
2023/08/25 04:10:05;;;;;;;;;25.75;24.00;;;;;29.36;44.33;100733.62;146617;577;45020;-66
2023/08/25 04:13:26;;;;;;;;;23.25;20.50;;;;;28.04;44.41;100531.41;146613;593;45915;-64
2023/08/25 04:16:25;;;;;;;;;26.00;21.00;;;;;29.19;45.21;100733.16;146616;648;46010;-65
2023/08/25 04:19:21;;;;;;;;;25.25;24.50;;;;;29.12;45.43;100739.59;146615;627;45914;-65
2023/08/25 04:22:28;;;;;;;;;21.75;18.75;;;;;29.13;45.37;100741.34;146610;622;46014;-65
2023/08/25 04:25:33;;;;;;;;;24.00;22.75;;;;;29.22;45.64;100749.09;146613;605;45915;-66
2023/08/25 04:28:35;;;;;;;;;19.75;18.25;;;;;29.32;46.39;100753.31;146618;587;45029;-66
2023/08/25 04:31:30;;;;;;;;;24.25;22.75;;;;;29.42;46.15;100753.97;146613;651;46012;-65
2023/08/25 04:34:43;;;;;;;;;23.00;21.75;;;;;29.54;46.07;100756.31;146617;619;45020;-66
2023/08/25 04:37:58;;;;;;;;;19.50;17.75;;;;;29.63;46.36;100757.91;146614;596;45915;-66
2023/08/25 04:41:27;;;;;;;;;;;;;;;;;;;;;
2023/08/25 04:44:52;;;;;;;;;22.25;22.25;;;;;29.78;48.30;100765.47;146612;589;45915;-65
2023/08/25 04:47:45;;;;;;;;;25.25;25.00;;;;;29.78;49.40;100768.13;146616;586;45020;-65
2023/08/25 04:50:47;;;;;;;;;22.25;22.25;;;;;29.80;49.08;100763.63;146614;601;46012;-66
2023/08/25 04:53:45;;;;;;;;;26.75;23.50;;;;;29.90;48.85;100775.81;146609;589;46010;-65
2023/08/25 04:56:42;;;;;;;;;23.50;22.00;;;;;29.96;49.06;100769.44;146614;579;46013;-66
2023/08/25 04:59:52;;;;;;;;;24.00;21.00;;;;;29.98;47.34;100772.06;146617;668;45021;-66
2023/08/25 05:02:57;;;;;;;;;20.75;19.00;;;;;29.94;49.04;100771.28;146613;608;45861;-66
2023/08/25 05:06:06;;;;;;;;;24.25;22.75;;;;;29.96;48.18;100781.91;146619;604;45021;-66
2023/08/25 05:09:11;;;;;;;;;24.50;23.00;;;;;30.05;47.26;100777.19;146613;628;45915;-65
2023/08/25 05:12:17;;;;;;;;;24.75;22.50;;;;;30.13;48.38;100793.91;146616;576;45021;-65
2023/08/25 05:15:22;;;;;;;;;26.00;23.00;;;;;30.18;48.02;100791.09;146615;690;45914;-65
2023/08/25 05:18:32;;;;;;;;;24.25;22.00;;;;;30.25;47.87;100795.38;146618;583;45020;-66
2023/08/25 05:21:31;;;;;;;;;22.75;20.75;;;;;30.37;47.40;100797.69;146614;618;45917;-65
2023/08/25 05:24:31;;;;;;;;;24.75;22.50;;;;;30.54;47.16;100790.97;146611;580;45020;-65
2023/08/25 05:27:28;;;;;;;;;25.00;22.00;;;;;30.79;46.21;100802.69;146614;592;45917;-65
2023/08/25 05:30:26;;;;;;;;;26.25;23.50;;;;;31.07;46.03;100801.81;146616;588;46010;-65
2023/08/25 05:33:24;;;;;;;;;23.75;20.00;;;;;31.29;44.94;100804.66;146614;566;45917;-65
2023/08/25 05:36:22;;;;;;;;;25.00;24.00;;;;;31.49;44.79;100801.31;146617;582;46010;-66
2023/08/25 05:39:34;;;;;;;;;23.75;22.00;;;;;31.63;43.78;100801.75;146614;569;45917;-65
2023/08/25 05:42:37;;;;;;;;;26.25;23.00;;;;;31.71;43.65;100805.03;146616;674;45021;-66
2023/08/25 05:45:35;;;;;;;;;29.50;25.00;;;;;31.81;44.01;100818.09;146614;569;45916;-66
2023/08/25 05:48:30;;;;;;;;;23.50;23.25;;;;;31.80;44.44;100813.66;146617;589;45021;-66
2023/08/25 05:51:39;;;;;;;;;27.25;23.50;;;;;31.70;44.20;100814.00;146609;600;47915;-66
2023/08/25 05:54:45;;;;;;;;;25.00;23.25;;;;;31.05;43.62;100715.28;146610;626;45020;-66
2023/08/25 05:57:48;;;;;;;;;24.50;23.25;;;;;31.64;44.16;100819.56;146615;607;45017;-66
2023/08/25 06:00:49;;;;;;;;;28.50;25.50;;;;;31.58;44.76;100816.22;146617;591;45020;-68
2023/08/25 06:03:49;;;;;;;;;26.50;23.00;;;;;31.64;44.16;100821.38;146614;603;45915;-67
2023/08/25 06:06:44;;;;;;;;;20.75;20.75;;;;;31.71;44.19;100810.41;146617;743;45020;-66
2023/08/25 06:09:39;;;;;;;;;24.25;22.50;;;;;31.72;42.93;100812.12;146613;597;45915;-67
2023/08/25 06:12:46;;;;;;;;;22.25;20.25;;;;;31.08;42.68;100707.16;146616;619;46010;-68
2023/08/25 06:15:38;;;;;;;;;26.00;23.75;;;;;31.68;42.62;100817.66;146608;572;46915;-72
2023/08/25 06:19:01;;;;;;;;;25.00;25.00;;;;;31.60;44.28;100817.06;146616;578;46010;-72
2023/08/25 06:22:16;;;;;;;;;25.25;23.50;;;;;31.48;45.22;100827.25;146613;581;45915;-72
2023/08/25 06:25:15;;;;;;;;;25.00;24.00;;;;;31.41;44.64;100831.06;146610;609;45020;-72
2023/08/25 06:28:13;;;;;;;;;25.50;24.75;;;;;31.42;44.14;100826.59;146614;564;45915;-72
2023/08/25 06:31:17;;;;;;;;;24.75;22.25;;;;;31.69;43.95;100839.06;146616;657;46010;-72
2023/08/25 18:35:02;;;;;;;;;21.25;19.50;;;;;29.38;49.77;100681.03;146706;566;45022;-71
2023/08/25 18:38:01;;;;;;;;;29.00;24.25;;;;;29.30;49.96;100682.16;146615;603;45023;-70
2023/08/25 18:40:58;;;;;;;;;28.75;26.75;;;;;29.34;51.65;100681.16;146620;581;45020;-71
2023/08/25 18:44:06;;;;;;;;;26.25;24.50;;;;;29.53;50.57;100676.19;146617;581;45016;-70
2023/08/25 18:47:00;;;;;;;;;26.50;25.75;;;;;29.72;50.01;100672.13;146618;572;46014;-70
2023/08/25 18:50:15;;;;;;;;;27.50;24.50;;;;;29.17;48.94;100567.66;146615;572;45914;-71
2023/08/25 18:53:10;;;;;;;;;32.25;28.25;;;;;29.79;49.15;100687.06;146619;622;45020;-72
2023/08/25 18:56:15;;;;;;;;;31.25;29.00;;;;;29.80;48.65;100690.59;146616;581;45033;-71
2023/08/25 18:59:09;;;;;;;;;29.00;26.00;;;;;29.81;50.39;100689.66;146620;574;45020;-71
2023/08/25 19:02:19;;;;;;;;;25.00;23.50;;;;;29.21;48.42;100573.81;146616;596;45914;-71
2023/08/25 19:05:30;;;;;;;;;;;;;;;;;;;;;
2023/08/25 19:08:33;;;;;;;;;25.25;24.75;;;;;29.96;47.38;100686.56;146615;574;45912;-71
2023/08/25 19:12:00;;;;;;;;;30.75;27.00;;;;;29.98;47.60;100683.84;146619;566;46010;-72
2023/08/25 19:14:58;;;;;;;;;26.00;24.00;;;;;30.05;47.64;100682.72;146617;599;45018;-71
2023/08/25 19:17:54;;;;;;;;;26.50;24.75;;;;;30.09;46.04;100684.37;146619;579;45021;-71
2023/08/25 19:21:00;;;;;;;;;25.25;24.25;;;;;29.98;46.23;100690.06;146616;600;45016;-71
2023/08/25 19:23:58;;;;;;;;;33.00;27.50;;;;;29.85;47.55;100686.88;146619;643;45021;-70
2023/08/25 19:27:17;;;;;;;;;33.50;29.75;;;;;29.18;48.55;100572.09;146616;583;45016;-71
2023/08/25 19:30:37;;;;;;;;;29.25;26.25;;;;;29.92;49.04;100671.53;146619;565;45021;-70
2023/08/25 19:33:30;;;;;;;;;28.50;26.50;;;;;30.05;48.13;100690.75;146617;571;45911;-71
2023/08/25 19:36:26;;;;;;;;;35.00;29.50;;;;;30.15;47.57;100677.03;146627;644;45010;-70
2023/08/25 19:39:27;;;;;;;;;31.50;28.75;;;;;30.12;47.99;100687.84;146618;566;46012;-72
2023/08/25 19:42:30;;;;;;;;;31.50;27.50;;;;;28.97;47.77;100511.25;146623;575;45020;-71
2023/08/25 19:45:34;;;;;;;;;31.50;25.75;;;;;29.98;47.73;100686.53;146623;597;45016;-71
2023/08/25 19:48:40;;;;;;;;;30.25;27.75;;;;;29.96;47.53;100685.69;146624;599;45037;-70
2023/08/25 19:51:36;;;;;;;;;29.25;26.25;;;;;29.93;47.85;100681.28;146622;580;45915;-70
2023/08/25 19:54:31;;;;;;;;;28.50;26.75;;;;;29.96;48.49;100680.34;146625;570;45021;-70
2023/08/25 19:57:30;;;;;;;;;32.25;28.75;;;;;29.97;48.34;100682.97;146621;623;45016;-71
2023/08/25 20:00:45;;;;;;;;;30.50;28.00;;;;;30.01;47.71;100679.28;146627;581;45014;-71
2023/08/25 20:03:43;;;;;;;;;26.75;25.75;;;;;30.02;46.52;100686.38;146621;591;45016;-71
2023/08/25 20:06:53;;;;;;;;;;;;;;;;;;;;;
2023/08/25 20:09:58;;;;;;;;;27.75;26.00;;;;;29.72;45.60;100687.25;146619;593;45912;-71
2023/08/25 20:13:05;;;;;;;;;24.50;23.50;;;;;29.64;46.01;100682.16;146624;564;45020;-71
2023/08/25 20:16:18;;;;;;;;;23.25;22.25;;;;;28.37;46.24;100461.28;146620;612;45017;-71
2023/08/25 20:19:21;;;;;;;;;28.50;24.75;;;;;29.68;46.36;100684.66;146622;577;45020;-70
2023/08/25 20:22:40;;;;;;;;;27.25;23.00;;;;;29.07;45.80;100571.53;146620;601;45914;-71
2023/08/25 20:25:53;;;;;;;;;22.50;22.00;;;;;29.74;45.75;100680.09;146620;588;46020;-70
2023/08/25 20:29:08;;;;;;;;;;;;;;;;;;;;;
2023/08/25 20:32:13;;;;;;;;;26.50;23.50;;;;;29.87;45.67;100677.00;146625;604;45014;-70
2023/08/25 20:35:23;;;;;;;;;25.25;22.75;;;;;29.54;46.63;100609.38;146616;572;45914;-70
2023/08/25 20:38:21;;;;;;;;;22.25;20.75;;;;;30.03;44.97;100672.09;146624;592;46014;-70
2023/08/25 20:41:17;;;;;;;;;26.50;25.00;;;;;30.08;43.53;100679.97;146616;585;45914;-70
2023/08/25 20:44:11;;;;;;;;;21.50;20.25;;;;;30.04;42.49;100675.66;146621;564;45021;-69
2023/08/25 20:47:29;;;;;;;;;28.50;24.00;;;;;29.95;44.66;100676.78;146616;649;45914;-65
2023/08/25 20:50:33;;;;;;;;;22.00;20.00;;;;;29.92;44.39;100675.06;146625;570;45020;-64
2023/08/25 20:53:48;;;;;;;;;24.00;22.25;;;;;29.75;44.22;100639.06;146618;610;47012;-64
2023/08/25 20:56:52;;;;;;;;;22.50;19.75;;;;;29.92;43.64;100680.41;146623;592;46010;-64
2023/08/25 20:59:53;;;;;;;;;23.75;22.00;;;;;29.90;43.49;100676.03;146618;577;46014;-65
2023/08/25 21:02:54;;;;;;;;;21.25;18.75;;;;;29.90;43.03;100679.59;146622;565;46010;-65
2023/08/25 21:05:54;;;;;;;;;23.25;22.50;;;;;29.90;43.08;100674.22;146617;615;46012;-67
2023/08/25 21:09:11;;;;;;;;;22.25;19.75;;;;;29.26;43.74;100558.53;146625;593;45020;-65
2023/08/25 21:12:15;;;;;;;;;18.50;18.50;;;;;29.86;44.02;100666.38;146617;578;45912;-65
2023/08/25 21:15:27;;;;;;;;;25.25;23.25;;;;;29.89;41.42;100658.25;146622;582;45021;-65
2023/08/25 21:18:43;;;;;;;;;;;;;;;;;;;;;
2023/08/25 21:21:46;;;;;;;;;20.25;19.25;;;;;29.92;44.14;100666.19;146621;617;45021;-66
2023/08/25 21:25:08;;;;;;;;;18.50;17.75;;;;;30.00;43.50;100642.78;146618;554;45018;-68
2023/08/25 21:28:10;;;;;;;;;22.75;19.50;;;;;30.12;42.28;100641.50;146620;628;46020;-68
2023/08/25 21:31:12;;;;;;;;;24.00;20.25;;;;;30.19;43.97;100647.53;146619;617;46012;-68
2023/08/25 21:34:12;;;;;;;;;21.25;20.50;;;;;30.26;43.83;100649.16;146622;623;46014;-67
2023/08/25 21:37:10;;;;;;;;;23.50;20.75;;;;;30.34;43.86;100652.44;146617;570;45912;-67
2023/08/25 21:40:09;;;;;;;;;21.25;19.50;;;;;30.36;41.29;100650.59;146619;580;45020;-68
2023/08/25 21:43:26;;;;;;;;;;;;;;;;;;;;;
2023/08/25 21:46:28;;;;;;;;;18.75;18.50;;;;;30.12;42.80;100644.19;146623;572;45022;-66
2023/08/25 21:49:23;;;;;;;;;23.75;21.00;;;;;30.17;43.21;100646.72;146621;563;45016;-68
2023/08/25 21:52:39;;;;;;;;;21.50;20.00;;;;;30.21;42.47;100653.75;146622;569;45021;-67
2023/08/25 21:55:33;;;;;;;;;21.50;19.25;;;;;30.22;40.96;100653.72;146620;622;45018;-66
2023/08/25 21:59:04;;;;;;;;;22.00;20.75;;;;;29.57;42.90;100557.66;146621;599;46021;-66
2023/08/25 22:02:23;;;;;;;;;21.50;19.25;;;;;30.15;42.62;100657.47;146620;642;45016;-69
2023/08/25 22:05:17;;;;;;;;;19.00;18.25;;;;;30.14;41.87;100655.72;146624;586;45021;-67
2023/08/25 22:08:16;;;;;;;;;22.50;21.75;;;;;30.10;41.96;100648.72;146620;611;45912;-67
2023/08/25 22:11:30;;;;;;;;;23.50;23.25;;;;;30.01;42.43;100649.88;146624;591;45020;-65
2023/08/25 22:14:28;;;;;;;;;19.25;18.25;;;;;29.81;41.18;100660.28;146620;633;45017;-66
2023/08/25 22:17:31;;;;;;;;;23.00;21.50;;;;;29.59;43.60;100660.84;146622;589;45020;-66
2023/08/25 22:20:29;;;;;;;;;21.25;21.25;;;;;29.55;42.88;100653.84;146621;578;45912;-66
2023/08/25 22:23:27;;;;;;;;;23.25;21.75;;;;;29.55;42.75;100650.31;146626;582;45014;-66
2023/08/25 22:26:44;;;;;;;;;21.75;20.50;;;;;29.46;42.51;100652.31;146622;587;46012;-67
2023/08/25 22:30:12;;;;;;;;;19.50;18.50;;;;;28.67;44.18;100510.31;146622;582;46010;-67
2023/08/25 22:33:09;;;;;;;;;25.50;23.00;;;;;29.45;41.94;100650.56;146619;602;45018;-67
2023/08/25 22:36:13;;;;;;;;;23.75;23.00;;;;;29.37;41.45;100649.88;146625;694;46010;-66
2023/08/25 22:39:28;;;;;;;;;20.25;19.50;;;;;28.68;41.88;100539.59;146620;586;45016;-66
2023/08/25 22:42:23;;;;;;;;;19.25;19.00;;;;;29.21;41.82;100640.56;146624;566;45021;-66
2023/08/25 22:45:28;;;;;;;;;22.75;19.25;;;;;29.16;42.93;100640.69;146618;608;46016;-65
2023/08/25 22:48:34;;;;;;;;;19.50;18.50;;;;;29.12;42.08;100640.81;146624;571;45020;-65
2023/08/25 22:51:28;;;;;;;;;19.00;19.00;;;;;29.06;42.58;100635.62;146620;604;45017;-65
2023/08/25 22:54:28;;;;;;;;;21.50;19.75;;;;;29.03;44.06;100623.22;146622;593;46020;-65
2023/08/25 22:57:29;;;;;;;;;22.25;19.25;;;;;28.98;45.46;100628.66;146621;669;46013;-66
2023/08/25 23:00:35;;;;;;;;;21.50;19.00;;;;;28.96;46.54;100630.50;146624;588;45020;-65
2023/08/25 23:03:40;;;;;;;;;22.00;20.25;;;;;29.04;46.30;100632.12;146620;638;45016;-66
2023/08/25 23:06:50;;;;;;;;;25.75;24.00;;;;;29.17;47.60;100629.09;146624;586;45010;-65
2023/08/25 23:10:00;;;;;;;;;20.50;19.75;;;;;28.60;47.43;100512.28;146619;580;45016;-65
2023/08/25 23:13:19;;;;;;;;;;;;;;;;;;;;;
2023/08/25 23:16:13;;;;;;;;;24.25;23.25;;;;;29.43;46.78;100628.34;146621;582;45018;-66
2023/08/25 23:19:15;;;;;;;;;22.25;20.50;;;;;29.53;47.24;100623.63;146623;661;45021;-66
2023/08/25 23:22:33;;;;;;;;;;;;;;;;;;;;;
2023/08/25 23:25:32;;;;;;;;;22.75;19.25;;;;;29.50;48.23;100630.84;146622;576;45021;-66
2023/08/25 23:28:50;;;;;;;;;22.00;22.00;;;;;29.29;48.29;100621.66;146621;565;45916;-68
2023/08/25 23:31:53;;;;;;;;;22.75;21.25;;;;;29.21;47.93;100620.06;146622;677;45020;-69
2023/08/25 23:34:58;;;;;;;;;22.25;21.25;;;;;29.20;47.92;100612.97;146623;601;45016;-66
2023/08/25 23:37:56;;;;;;;;;24.25;20.75;;;;;29.24;48.21;100619.09;146623;591;45020;-66
2023/08/25 23:41:03;;;;;;;;;23.00;20.25;;;;;29.15;47.04;100620.22;146619;599;45017;-66
2023/08/25 23:44:13;;;;;;;;;24.50;22.50;;;;;28.96;47.04;100625.16;146624;576;45021;-67
2023/08/25 23:47:20;;;;;;;;;21.75;21.75;;;;;28.82;46.64;100611.31;146620;613;45016;-66
2023/08/25 23:50:37;;;;;;;;;22.00;20.00;;;;;28.00;47.37;100481.75;146621;586;45021;-67
2023/08/25 23:53:43;;;;;;;;;22.75;21.25;;;;;28.88;46.77;100610.25;146620;580;45016;-65
2023/08/25 23:56:51;;;;;;;;;26.25;21.75;;;;;28.92;45.80;100615.47;146620;582;45014;-65
2023/08/25 23:59:51;;;;;;;;;24.50;24.25;;;;;28.81;47.08;100617.53;146623;588;45016;-66
